Text Box: All records at near 07:00 local time
Kleivo 1 weather for Feb 2008
Month no. 15
Obs.
Da.
Temp. Dew Point Precip. Wind
Speed
Wind gusts Cloud cover Press. Humidity Wind dir. Sunny OPT
01.02.2008 2,3   0,0 15,0   1 946,2 88,0 112,5   47,5 %
02.02.2008 -2,5   0,0 0,0   1 973,2 94,0 315,0   55,0 %
03.02.2008 1,3   0,0 0,0   1 974,9 95,0 135,0   57,5 %
04.02.2008 4,4   0,0 8,0   1 979,7 60,0 180,0   55,0 %
05.02.2008 5,3   0,0 11,0   6 980,0 88,0 180,0 1 67,5 %
06.02.2008 5,0   0,0 5,0   1 974,9 86,0 157,5   60,0 %
07.02.2008 2,4   0,0 0,0   2 1008,8 94,0 270,0   60,0 %
08.02.2008 6,4   0,0 7,0   1 1006,8 94,0 135,0   60,0 %
09.02.2008 6,2   0,0 11,0   1 1007,4 92,0 157,5 1 55,0 %
10.02.2008 5,9   0,0 7,0   0 1013,5 95,0 180,0   57,5 %
11.02.2008 2,8   0,0 0,0   6 1019,6 96,0 337,5 1 72,5 %
12.02.2008 3,0   0,0 16,0   1 1019,6 91,0 135,0   50,0 %
13.02.2008 3,6   0,0 2,0   1 1019,6 92,0 157,5   60,0 %
14.02.2008 -1,8   9,7 0,0   8 1024,7 94,0 0,0 1 65,0 %
15.02.2008 0,5   0,0 9,0   10 1044,0 85,0 135,0 1 75,0 %
16.02.2008 3,3   0,0 13,0   10 1042,0 76,0 157,5 1 75,0 %
17.02.2008 6,3   0,0 20,0   10 1028,1 96,0 270,0 1 72,5 %
18.02.2008 7,2   0,0 19,0   10 1025,7 99,0 315,0 1 72,5 %
19.02.2008 6,3   0,0 3,0   10 1022,3 99,0 337,5 1 85,0 %
20.02.2008 4,8   0,0 12,0   10 1015,2 92,0 225,0 1 75,0 %
21.02.2008 5,7   0,0 32,0   5 999,0 93,0 202,5 1 52,5 %
22.02.2008 7,0   0,0 39,0   0 990,5 77,0 270,0   35,0 %
23.02.2008 4,1   0,0 0,0   8 986,1 88,0 292,5 1 77,5 %
24.02.2008 6,4   0,0 8,0   8 981,4 94,0 157,5 1 75,0 %
25.02.2008 3,3   0,0 0,0   8 985,4 87,0 157,5 1 77,5 %
26.02.2008 6,7   0,0 26,0   10 985,1 97,0 202,5   67,5 %
27.02.2008 6,3   0,0 47,0   4 983,1 91,0 337,5 1 45,0 %
28.02.2008 5,7   0,0 18,0   10 1007,1 81,0 292,5 1 75,0 %
29.02.2008 5,7   0,0 17,0   10 1004,7 87,0 247,5 1 75,0 %
                       
                       
Avrg/Sum 4,3   9,7 11,9   5,3 1001,7 89,7 208,7 17 64,1 %